createdAt,value
2023-02-09T00:00:01.626Z,67.04
2023-02-09T00:00:59.001Z,67.25
2023-02-09T00:01:59.032Z,67.07
2023-02-09T00:02:59.002Z,67.88
2023-02-09T00:03:59.070Z,68.71
2023-02-09T00:04:58.975Z,68.29
2023-02-09T00:05:58.963Z,68.29
2023-02-09T00:07:00.588Z,68.71
2023-02-09T00:07:58.930Z,68.50
2023-02-09T00:08:58.942Z,68.50
2023-02-09T00:09:58.924Z,68.50
2023-02-09T00:10:58.907Z,68.60
2023-02-09T00:11:58.906Z,68.71
2023-02-09T00:12:58.885Z,68.92
2023-02-09T00:13:58.864Z,68.50
2023-02-09T00:14:58.861Z,68.19
2023-02-09T00:15:58.892Z,68.50
2023-02-09T00:16:58.853Z,68.29
2023-02-09T00:17:58.936Z,68.92
2023-02-09T00:18:58.816Z,68.85
2023-02-09T00:19:58.807Z,69.47
2023-02-09T00:20:58.801Z,69.16
2023-02-09T00:21:58.817Z,68.32
2023-02-09T00:22:58.774Z,68.32
2023-02-09T00:23:58.783Z,68.43
2023-02-09T00:24:58.753Z,68.53
2023-02-09T00:25:58.742Z,68.12
2023-02-09T00:26:58.743Z,68.63
2023-02-09T00:27:58.816Z,68.32
2023-02-09T00:28:58.740Z,69.06
2023-02-09T00:29:58.698Z,68.63
2023-02-09T00:30:58.742Z,68.32
2023-02-09T00:31:58.736Z,68.22
2023-02-09T00:32:58.680Z,68.43
2023-02-09T00:33:58.672Z,68.32
2023-02-09T00:34:58.672Z,68.63
2023-02-09T00:35:58.808Z,68.12
2023-02-09T00:36:58.625Z,69.16
2023-02-09T00:37:58.609Z,68.32
2023-02-09T00:38:58.607Z,69.06
2023-02-09T00:39:58.604Z,68.43
2023-02-09T00:40:58.600Z,68.85
2023-02-09T00:41:58.585Z,68.22
2023-02-09T00:42:58.565Z,68.22
2023-02-09T00:43:58.546Z,68.95
2023-02-09T00:44:58.543Z,68.85
2023-02-09T00:45:58.671Z,68.95
2023-02-09T00:46:58.559Z,69.37
2023-02-09T00:47:58.520Z,69.47
2023-02-09T00:48:58.505Z,68.98
2023-02-09T00:49:58.520Z,69.71
2023-02-09T00:50:58.477Z,68.88
2023-02-09T00:51:58.482Z,69.37
2023-02-09T00:52:58.473Z,69.29
2023-02-09T00:53:58.449Z,69.09
2023-02-09T00:54:58.462Z,68.88
2023-02-09T00:55:58.428Z,69.09
2023-02-09T00:56:58.419Z,69.40
2023-02-09T00:57:58.403Z,69.71
2023-02-09T00:58:58.450Z,69.19
2023-02-09T00:59:58.382Z,69.40
2023-02-09T01:00:58.382Z,69.51
2023-02-09T01:01:58.404Z,69.40
2023-02-09T01:02:58.355Z,69.82
2023-02-09T01:03:58.349Z,69.09
2023-02-09T01:04:58.375Z,69.29
2023-02-09T01:05:58.341Z,69.40
2023-02-09T01:06:58.309Z,69.29
2023-02-09T01:07:58.323Z,69.82
2023-02-09T01:08:58.293Z,69.71
2023-02-09T01:09:58.277Z,69.40
2023-02-09T01:10:58.321Z,69.51
2023-02-09T01:11:58.254Z,69.92
2023-02-09T01:12:58.251Z,70.13
2023-02-09T01:13:58.264Z,71.08
2023-02-09T01:14:58.222Z,69.82
2023-02-09T01:15:58.208Z,70.34
2023-02-09T01:16:58.304Z,70.03
2023-02-09T01:17:58.188Z,70.97
2023-02-09T01:18:58.192Z,70.86
2023-02-09T01:19:58.167Z,70.55
2023-02-09T01:20:58.172Z,70.13
2023-02-09T01:21:58.174Z,70.03
2023-02-09T01:22:58.177Z,70.13
2023-02-09T01:23:58.124Z,70.65
2023-02-09T01:24:58.135Z,70.86
2023-02-09T01:25:58.097Z,70.97
2023-02-09T01:26:58.095Z,70.55
2023-02-09T01:27:58.149Z,70.97
2023-02-09T01:28:58.106Z,70.86
2023-02-09T01:29:58.056Z,70.76
2023-02-09T01:30:58.197Z,70.13
2023-02-09T01:31:58.099Z,70.86
2023-02-09T01:32:58.028Z,70.86
2023-02-09T01:33:58.029Z,71.28
2023-02-09T01:34:58.022Z,70.86
2023-02-09T01:35:58.001Z,70.97
2023-02-09T01:36:57.998Z,70.97
2023-02-09T01:37:57.988Z,70.76
2023-02-09T01:38:57.972Z,71.08
2023-02-09T01:39:57.963Z,71.08
2023-02-09T01:40:57.970Z,71.52
2023-02-09T01:41:57.938Z,71.18
2023-02-09T01:42:57.935Z,70.97
2023-02-09T01:43:57.915Z,71.18
2023-02-09T01:44:57.904Z,70.97
2023-02-09T01:45:57.925Z,71.11
2023-02-09T01:46:57.912Z,71.08
2023-02-09T01:47:57.888Z,71.00
2023-02-09T01:48:57.867Z,71.21
2023-02-09T01:49:57.849Z,71.18
2023-02-09T01:50:57.861Z,70.86
2023-02-09T01:51:57.827Z,71.18
2023-02-09T01:52:57.871Z,71.18
2023-02-09T01:53:57.831Z,71.52
2023-02-09T01:54:57.796Z,71.70
2023-02-09T01:55:57.802Z,71.49
2023-02-09T01:56:57.773Z,71.62
2023-02-09T01:57:57.754Z,71.62
2023-02-09T01:58:57.785Z,70.86
2023-02-09T01:59:57.759Z,71.39
2023-02-09T02:00:59.899Z,71.21
2023-02-09T02:01:57.716Z,71.28
2023-02-09T02:02:57.717Z,71.31
2023-02-09T02:03:57.695Z,71.59
2023-02-09T02:04:57.736Z,71.84
2023-02-09T02:05:57.670Z,71.31
2023-02-09T02:06:57.671Z,71.31
2023-02-09T02:07:57.661Z,71.52
2023-02-09T02:08:57.679Z,71.49
2023-02-09T02:09:57.646Z,71.11
2023-02-09T02:10:57.640Z,71.62
2023-02-09T02:11:57.629Z,71.84
2023-02-09T02:12:57.614Z,71.62
2023-02-09T02:13:57.588Z,71.70
2023-02-09T02:14:57.576Z,71.59
2023-02-09T02:15:57.592Z,71.94
2023-02-09T02:16:57.574Z,72.15
2023-02-09T02:17:57.554Z,72.25
2023-02-09T02:18:57.532Z,72.05
2023-02-09T02:19:57.516Z,72.33
2023-02-09T02:20:57.510Z,72.25
2023-02-09T02:21:57.507Z,71.84
2023-02-09T02:22:57.506Z,72.53
2023-02-09T02:23:57.489Z,72.02
2023-02-09T02:24:57.474Z,72.15
2023-02-09T02:25:57.472Z,71.80
2023-02-09T02:26:57.474Z,72.05
2023-02-09T02:27:57.499Z,71.94
2023-02-09T02:28:57.446Z,72.12
2023-02-09T02:29:57.427Z,72.47
2023-02-09T02:30:57.605Z,72.75
2023-02-09T02:31:57.416Z,72.05
2023-02-09T02:32:57.381Z,72.33
2023-02-09T02:33:57.365Z,72.57
2023-02-09T02:34:57.378Z,72.57
2023-02-09T02:35:57.342Z,72.36
2023-02-09T02:36:57.348Z,72.22
2023-02-09T02:37:57.323Z,72.36
2023-02-09T02:38:57.314Z,72.25
2023-02-09T02:39:57.303Z,72.25
2023-02-09T02:40:57.354Z,72.36
2023-02-09T02:41:57.297Z,72.88
2023-02-09T02:42:57.268Z,72.36
2023-02-09T02:43:57.260Z,72.36
2023-02-09T02:44:57.264Z,72.36
2023-02-09T02:45:57.304Z,72.78
2023-02-09T02:46:57.252Z,73.19
2023-02-09T02:47:57.222Z,73.19
2023-02-09T02:48:57.226Z,73.19
2023-02-09T02:49:57.196Z,73.19
2023-02-09T02:50:57.234Z,72.92
2023-02-09T02:51:57.177Z,72.99
2023-02-09T02:52:57.211Z,72.67
2023-02-09T02:53:57.155Z,72.47
2023-02-09T02:54:57.150Z,72.47
2023-02-09T02:55:57.137Z,72.81
2023-02-09T02:56:57.143Z,72.81
2023-02-09T02:57:57.150Z,72.39
2023-02-09T02:58:57.128Z,72.29
2023-02-09T02:59:57.112Z,73.02
2023-02-09T03:00:57.084Z,72.71
2023-02-09T03:01:57.118Z,72.81
2023-02-09T03:02:57.087Z,72.60
2023-02-09T03:03:57.052Z,72.81
2023-02-09T03:04:57.088Z,73.23
2023-02-09T03:05:57.040Z,73.13
2023-02-09T03:06:57.030Z,72.60
2023-02-09T03:07:57.010Z,73.54
2023-02-09T03:08:56.999Z,73.75
2023-02-09T03:09:56.996Z,74.17
2023-02-09T03:10:57.022Z,74.59
2023-02-09T03:11:56.982Z,74.27
2023-02-09T03:12:56.973Z,74.38
2023-02-09T03:13:56.976Z,74.27
2023-02-09T03:19:38.111Z,73.96
2023-02-09T03:20:38.141Z,74.27
2023-02-09T03:21:38.120Z,74.07
2023-02-09T03:22:38.084Z,74.10
2023-02-09T03:23:38.078Z,74.07
2023-02-09T03:24:38.084Z,74.38
2023-02-09T03:25:38.069Z,74.27
2023-02-09T03:26:38.034Z,74.27
2023-02-09T03:27:38.025Z,74.69
2023-02-09T03:28:38.015Z,75.01
2023-02-09T03:29:38.044Z,74.38
2023-02-09T03:30:38.052Z,74.49
2023-02-09T03:31:37.994Z,74.62
2023-02-09T03:32:37.977Z,74.52
2023-02-09T03:33:37.992Z,74.84
2023-02-09T03:34:37.955Z,74.73
2023-02-09T03:35:37.958Z,74.41
2023-02-09T03:36:37.930Z,74.52
2023-02-09T03:37:37.936Z,74.55
2023-02-09T03:38:37.909Z,75.18
2023-02-09T03:39:37.925Z,74.76
2023-02-09T03:40:37.894Z,74.66
2023-02-09T03:41:37.934Z,74.52
2023-02-09T03:42:37.870Z,74.73
2023-02-09T03:43:37.855Z,74.55
2023-02-09T03:44:37.842Z,74.97
2023-02-09T03:45:37.864Z,74.84
2023-02-09T03:46:37.895Z,74.45
2023-02-09T03:47:37.827Z,75.29
2023-02-09T03:48:37.819Z,74.87
2023-02-09T03:49:37.796Z,74.76
2023-02-09T03:50:37.781Z,74.76
2023-02-09T03:51:37.766Z,74.31
2023-02-09T03:52:37.760Z,74.31
2023-02-09T03:53:37.760Z,74.34
2023-02-09T03:54:37.753Z,73.93
2023-02-09T03:55:37.722Z,74.24
2023-02-09T03:56:37.741Z,74.55
2023-02-09T03:57:37.702Z,74.76
2023-02-09T03:58:37.698Z,75.43
2023-02-09T03:59:37.780Z,74.90
2023-02-09T04:00:37.722Z,75.32
2023-02-09T04:01:37.801Z,75.39
2023-02-09T04:02:37.773Z,75.29
2023-02-09T04:03:37.647Z,75.63
2023-02-09T04:04:37.636Z,75.32
2023-02-09T04:05:37.648Z,75.08
2023-02-09T04:06:37.608Z,74.66
2023-02-09T04:07:37.593Z,75.01
2023-02-09T04:08:37.607Z,75.18
2023-02-09T04:09:37.607Z,74.97
2023-02-09T04:10:37.565Z,75.18
2023-02-09T04:11:37.569Z,74.76
2023-02-09T04:12:37.549Z,74.66
2023-02-09T04:13:37.602Z,74.97
2023-02-09T04:14:37.522Z,75.08
2023-02-09T04:15:37.510Z,74.66
2023-02-09T04:16:37.568Z,75.32
2023-02-09T04:17:37.527Z,74.97
2023-02-09T04:18:37.476Z,74.87
2023-02-09T04:19:37.464Z,75.29
2023-02-09T04:20:37.457Z,74.55
2023-02-09T04:21:37.443Z,75.08
2023-02-09T04:22:37.433Z,74.87
2023-02-09T04:23:37.458Z,75.01
2023-02-09T04:24:37.414Z,74.87
2023-02-09T04:25:37.399Z,75.29
2023-02-09T04:26:37.392Z,74.76
2023-02-09T04:27:37.380Z,74.87
2023-02-09T04:28:37.373Z,75.18
2023-02-09T04:29:37.399Z,74.66
2023-02-09T04:30:37.422Z,74.55
2023-02-09T04:31:37.365Z,75.11
2023-02-09T04:32:37.338Z,74.66
2023-02-09T04:33:37.339Z,74.97
2023-02-09T04:34:37.315Z,74.80
2023-02-09T04:35:37.340Z,75.18
2023-02-09T04:36:37.295Z,75.29
2023-02-09T04:37:37.296Z,75.21
2023-02-09T04:38:37.273Z,75.11
2023-02-09T04:39:37.272Z,75.01
2023-02-09T04:40:37.251Z,75.21
2023-02-09T04:41:37.262Z,74.97
2023-02-09T04:42:37.227Z,74.97
2023-02-09T04:43:37.237Z,74.87
2023-02-09T04:44:37.209Z,74.80
2023-02-09T04:45:37.259Z,74.90
2023-02-09T04:46:37.185Z,74.76
2023-02-09T04:47:37.195Z,75.32
2023-02-09T04:48:37.164Z,75.53
2023-02-09T04:49:37.186Z,75.53
2023-02-09T04:50:37.155Z,75.11
2023-02-09T04:51:37.156Z,75.32
2023-02-09T04:52:37.133Z,75.11
2023-02-09T04:53:37.130Z,75.95
2023-02-09T04:54:37.117Z,75.32
2023-02-09T04:55:37.091Z,75.88
2023-02-09T04:56:38.695Z,75.78
2023-02-09T04:57:37.069Z,75.84
2023-02-09T04:58:37.077Z,75.56
2023-02-09T04:59:37.072Z,75.78
2023-02-09T05:00:37.062Z,76.51
2023-02-09T05:01:37.045Z,76.40
2023-02-09T05:02:37.019Z,76.37
2023-02-09T05:03:37.027Z,76.51
2023-02-09T05:04:37.017Z,76.57
2023-02-09T05:05:37.013Z,76.09
2023-02-09T05:06:36.982Z,76.68
2023-02-09T05:07:36.966Z,76.61
2023-02-09T05:08:36.958Z,76.47
2023-02-09T05:09:36.963Z,76.26
2023-02-09T05:10:36.953Z,76.26
2023-02-09T05:11:36.956Z,76.61
2023-02-09T05:12:36.929Z,76.16
2023-02-09T05:13:36.902Z,76.16
2023-02-09T05:14:36.901Z,75.53
2023-02-09T05:15:36.885Z,76.51
2023-02-09T05:16:39.135Z,76.51
2023-02-09T05:17:36.895Z,76.93
2023-02-09T05:18:36.858Z,76.61
2023-02-09T05:19:36.851Z,76.51
2023-02-09T05:20:36.832Z,76.61
2023-02-09T05:21:36.855Z,76.40
2023-02-09T05:22:36.819Z,76.51
2023-02-09T05:23:36.848Z,76.51
2023-02-09T05:24:36.793Z,76.12
2023-02-09T05:25:36.804Z,76.23
2023-02-09T05:26:36.773Z,77.07
2023-02-09T05:27:36.810Z,78.22
2023-02-09T05:28:36.761Z,77.80
2023-02-09T05:29:36.783Z,77.73
2023-02-09T05:30:36.743Z,77.73
2023-02-09T05:31:36.846Z,77.73
2023-02-09T05:32:36.725Z,77.84
2023-02-09T05:33:36.706Z,77.91
2023-02-09T05:34:36.692Z,77.31
2023-02-09T05:35:36.695Z,77.62
2023-02-09T05:36:36.692Z,77.80
2023-02-09T05:37:36.671Z,77.84
2023-02-09T05:38:36.678Z,78.15
2023-02-09T05:39:36.631Z,78.33
2023-02-09T05:40:36.640Z,78.22
2023-02-09T05:41:36.632Z,77.84
2023-02-09T05:42:36.601Z,78.53
2023-02-09T05:43:36.586Z,78.57
2023-02-09T05:44:36.606Z,77.87
2023-02-09T05:45:36.623Z,78.15
2023-02-09T05:46:36.560Z,78.25
2023-02-09T05:47:36.569Z,78.36
2023-02-09T05:48:36.580Z,78.25
2023-02-09T05:49:36.529Z,78.05
2023-02-09T05:50:36.540Z,78.47
2023-02-09T05:51:36.513Z,78.67
2023-02-09T05:52:36.509Z,78.71
2023-02-09T05:53:36.513Z,78.71
2023-02-09T05:54:36.494Z,78.92
2023-02-09T05:55:36.480Z,78.78
2023-02-09T05:56:36.456Z,78.92
2023-02-09T05:57:36.464Z,79.03
2023-02-09T05:58:36.455Z,79.72
2023-02-09T05:59:36.416Z,79.44
2023-02-09T06:00:36.403Z,79.13
2023-02-09T06:01:36.407Z,79.34
2023-02-09T06:02:36.408Z,78.61
2023-02-09T06:03:36.498Z,78.89
2023-02-09T06:04:36.399Z,79.13
2023-02-09T06:05:36.370Z,78.89
2023-02-09T06:06:36.381Z,78.99
2023-02-09T06:07:36.337Z,78.78
2023-02-09T06:08:36.332Z,78.25
2023-02-09T06:09:36.331Z,78.25
2023-02-09T06:10:36.314Z,78.05
2023-02-09T06:11:36.293Z,79.03
2023-02-09T06:12:36.282Z,78.81
2023-02-09T06:13:36.300Z,78.81
2023-02-09T06:14:36.255Z,79.03
2023-02-09T06:15:36.324Z,78.92
2023-02-09T06:16:36.249Z,79.03
2023-02-09T06:17:36.239Z,78.81
2023-02-09T06:18:36.226Z,79.13
2023-02-09T06:19:36.203Z,78.71
2023-02-09T06:20:36.193Z,79.13
2023-02-09T06:21:36.205Z,78.81
2023-02-09T06:22:36.184Z,79.13
2023-02-09T06:23:36.165Z,78.71
2023-02-09T06:24:36.155Z,78.92
2023-02-09T06:25:36.178Z,78.19
2023-02-09T06:26:36.134Z,78.81
2023-02-09T06:27:36.150Z,79.03
2023-02-09T06:28:36.135Z,79.44
2023-02-09T06:29:36.106Z,78.61
2023-02-09T06:30:36.084Z,78.81
2023-02-09T06:31:36.234Z,78.92
2023-02-09T06:32:36.072Z,79.34
2023-02-09T06:33:36.078Z,78.81
2023-02-09T06:34:36.086Z,78.81
2023-02-09T06:35:36.068Z,79.03
2023-02-09T06:36:36.030Z,78.61
2023-02-09T06:37:36.025Z,78.61
2023-02-09T06:38:36.025Z,78.71
2023-02-09T06:39:36.028Z,79.13
2023-02-09T06:40:36.001Z,78.92
2023-02-09T06:41:36.005Z,78.81
2023-02-09T06:42:35.998Z,78.81
2023-02-09T06:43:35.980Z,78.92
2023-02-09T06:44:35.946Z,78.81
2023-02-09T06:45:35.947Z,79.13
2023-02-09T06:46:35.997Z,79.03
2023-02-09T06:47:35.982Z,79.44
2023-02-09T06:48:35.900Z,79.86
2023-02-09T06:49:35.913Z,79.76
2023-02-09T06:50:35.901Z,79.76
2023-02-09T06:51:35.892Z,79.86
2023-02-09T06:52:35.860Z,79.03
2023-02-09T06:53:35.861Z,78.81
2023-02-09T06:54:35.832Z,79.13
2023-02-09T06:55:35.823Z,79.13
2023-02-09T06:56:35.833Z,78.81
2023-02-09T06:57:35.842Z,78.81
2023-02-09T06:58:35.795Z,79.48
2023-02-09T06:59:35.816Z,80.00
2023-02-09T07:00:35.769Z,79.86
2023-02-09T07:01:35.838Z,79.86
2023-02-09T07:02:35.820Z,79.86
2023-02-09T07:03:35.752Z,78.92
2023-02-09T07:04:35.729Z,79.03
2023-02-09T07:05:35.798Z,79.86
2023-02-09T07:06:35.731Z,79.80
2023-02-09T07:07:35.708Z,79.44
2023-02-09T07:08:35.701Z,79.80
2023-02-09T07:09:35.704Z,79.66
2023-02-09T07:10:35.676Z,79.58
2023-02-09T07:11:35.674Z,79.48
2023-02-09T07:12:35.649Z,79.69
2023-02-09T07:13:35.684Z,79.58
2023-02-09T07:14:35.618Z,79.69
2023-02-09T07:15:35.659Z,79.69
2023-02-09T07:16:35.599Z,79.55
2023-02-09T07:17:35.631Z,79.76
2023-02-09T07:18:35.575Z,79.66
2023-02-09T07:19:35.572Z,79.44
2023-02-09T07:20:35.574Z,79.66
2023-02-09T07:21:35.555Z,79.76
2023-02-09T07:22:35.541Z,79.86
2023-02-09T07:23:35.548Z,79.69
2023-02-09T07:24:35.534Z,79.66
2023-02-09T07:25:35.511Z,79.34
2023-02-09T07:26:35.506Z,79.86
2023-02-09T07:27:35.486Z,79.97
2023-02-09T07:28:35.565Z,79.55
2023-02-09T07:29:35.505Z,79.80
2023-02-09T07:30:35.520Z,79.55
2023-02-09T07:31:35.638Z,79.55
2023-02-09T07:32:35.444Z,79.66
2023-02-09T07:33:35.439Z,79.55
2023-02-09T07:34:35.408Z,79.80
2023-02-09T07:35:35.414Z,79.76
2023-02-09T07:36:35.390Z,79.76
2023-02-09T07:37:35.387Z,79.66
2023-02-09T07:38:35.464Z,79.97
2023-02-09T07:39:35.373Z,79.62
2023-02-09T07:40:35.362Z,79.86
2023-02-09T07:41:35.334Z,79.34
2023-02-09T07:42:35.338Z,79.80
2023-02-09T07:43:35.320Z,79.76
2023-02-09T07:44:35.302Z,79.86
2023-02-09T07:45:35.303Z,79.72
2023-02-09T07:46:35.347Z,79.72
2023-02-09T07:47:35.283Z,79.66
2023-02-09T07:48:35.254Z,79.66
2023-02-09T07:49:35.250Z,79.62
2023-02-09T07:50:35.230Z,79.52
2023-02-09T07:51:35.251Z,79.66
2023-02-09T07:52:35.238Z,79.10
2023-02-09T07:53:35.200Z,79.20
2023-02-09T07:54:35.188Z,79.83
2023-02-09T07:55:35.203Z,79.30
2023-02-09T07:56:35.189Z,78.96
2023-02-09T07:57:35.158Z,78.64
2023-02-09T07:58:35.167Z,78.33
2023-02-09T07:59:35.139Z,77.91
2023-02-09T08:00:35.126Z,77.59
2023-02-09T08:01:35.244Z,78.08
2023-02-09T08:02:35.101Z,78.08
2023-02-09T08:03:35.114Z,78.08
2023-02-09T08:04:35.097Z,76.68
2023-02-09T08:05:35.069Z,76.57
2023-02-09T08:06:41.891Z,76.37
2023-02-09T08:07:36.052Z,76.33
2023-02-09T08:08:35.056Z,76.51
2023-02-09T08:09:35.482Z,75.25
2023-02-09T08:10:35.041Z,75.35
2023-02-09T08:11:35.015Z,75.43
2023-02-09T08:12:35.032Z,75.22
2023-02-09T08:13:34.989Z,74.45
2023-02-09T08:14:34.974Z,74.14
2023-02-09T08:15:34.966Z,74.00
2023-02-09T08:16:35.051Z,72.96
2023-02-09T08:17:34.967Z,73.24
2023-02-09T08:18:34.949Z,72.26
2023-02-09T08:19:34.932Z,72.05
2023-02-09T08:20:34.920Z,71.42
2023-02-09T08:21:34.928Z,71.64
2023-02-09T08:22:34.910Z,71.64
2023-02-09T08:23:34.897Z,72.26
2023-02-09T08:24:34.872Z,71.42
2023-02-09T08:25:34.888Z,71.56
2023-02-09T08:26:34.851Z,72.05
2023-02-09T08:27:34.839Z,71.32
2023-02-09T08:28:43.685Z,71.39
2023-02-09T08:29:35.837Z,71.29
2023-02-09T08:30:34.808Z,70.66
2023-02-09T08:31:34.931Z,70.98
2023-02-09T08:32:34.824Z,70.70
2023-02-09T08:33:34.797Z,70.98
2023-02-09T08:34:34.783Z,70.84
2023-02-09T08:35:34.771Z,70.66
2023-02-09T08:36:34.738Z,70.63
2023-02-09T08:37:34.735Z,69.79
2023-02-09T08:38:34.725Z,70.39
2023-02-09T08:39:34.713Z,69.45
2023-02-09T08:40:34.731Z,69.03
2023-02-09T08:41:34.687Z,68.97
2023-02-09T08:42:34.701Z,69.07
2023-02-09T08:43:34.668Z,67.75
2023-02-09T08:44:34.661Z,68.07
2023-02-09T08:45:34.750Z,68.07
2023-02-09T08:46:34.816Z,68.27
2023-02-09T08:47:34.643Z,68.13
2023-02-09T08:48:35.824Z,67.96
2023-02-09T08:49:34.651Z,68.30
2023-02-09T08:50:34.594Z,68.79
2023-02-09T08:51:34.597Z,68.24
2023-02-09T08:52:34.588Z,68.03
2023-02-09T08:53:34.568Z,68.35
2023-02-09T08:54:34.564Z,68.32
2023-02-09T08:55:34.564Z,66.65
2023-02-09T08:56:34.546Z,66.86
2023-02-09T08:57:43.588Z,67.79
2023-02-09T08:58:34.555Z,66.75
2023-02-09T08:59:34.523Z,67.38
2023-02-09T09:00:34.488Z,66.44
2023-02-09T09:01:34.625Z,66.96
2023-02-09T09:02:34.502Z,67.07
2023-02-09T09:03:34.490Z,68.03
2023-02-09T09:04:34.502Z,68.24
2023-02-09T09:05:34.479Z,67.82
2023-02-09T09:06:34.451Z,68.42
2023-02-09T09:07:34.426Z,67.76
2023-02-09T09:08:34.420Z,66.23
2023-02-09T09:09:34.400Z,66.13
2023-02-09T09:10:34.417Z,66.96
2023-02-09T09:11:34.409Z,66.99
2023-02-09T09:12:34.358Z,67.27
2023-02-09T09:13:34.351Z,67.48
2023-02-09T09:14:34.337Z,66.96
2023-02-09T09:15:34.342Z,66.93
2023-02-09T09:16:34.338Z,67.35
2023-02-09T09:17:34.345Z,66.90
2023-02-09T09:18:34.299Z,66.59
2023-02-09T09:19:34.285Z,65.55
2023-02-09T09:20:34.292Z,66.97
2023-02-09T09:21:34.281Z,67.67
2023-02-09T09:22:34.288Z,65.69
2023-02-09T09:23:34.244Z,65.69
2023-02-09T09:24:34.229Z,65.04
2023-02-09T09:25:34.221Z,65.25
2023-02-09T09:26:34.208Z,64.73
2023-02-09T09:27:34.217Z,65.11
2023-02-09T09:28:34.243Z,65.60
2023-02-09T09:29:34.178Z,64.64
2023-02-09T09:30:34.181Z,63.94
2023-02-09T09:31:34.360Z,62.90
2023-02-09T09:32:34.356Z,63.59
2023-02-09T09:33:34.149Z,63.72
2023-02-09T09:34:34.168Z,64.45
2023-02-09T09:35:34.114Z,65.35
2023-02-09T09:36:34.108Z,64.55
2023-02-09T09:37:34.143Z,64.55
2023-02-09T09:38:34.085Z,64.76
2023-02-09T09:39:34.082Z,65.28
2023-02-09T09:40:34.093Z,65.25
2023-02-09T09:41:34.064Z,64.49
2023-02-09T09:42:34.036Z,64.62
2023-02-09T09:43:34.033Z,64.39
2023-02-09T09:44:34.012Z,63.35
2023-02-09T09:45:34.024Z,63.79
2023-02-09T09:46:34.051Z,64.31
2023-02-09T09:47:34.008Z,64.59
2023-02-09T09:48:33.975Z,63.97
2023-02-09T09:49:33.962Z,64.25
2023-02-09T09:50:33.970Z,64.56
2023-02-09T09:51:33.946Z,64.09
2023-02-09T09:52:33.945Z,63.68
2023-02-09T09:53:34.019Z,62.54
2023-02-09T09:54:33.907Z,62.05
2023-02-09T09:55:33.919Z,62.33
2023-02-09T09:56:33.880Z,62.12
2023-02-09T09:57:33.886Z,62.64
2023-02-09T09:58:33.873Z,64.09
2023-02-09T09:59:33.875Z,63.62
2023-02-09T10:00:33.847Z,62.97
2023-02-09T10:01:33.947Z,61.26
2023-02-09T10:02:33.827Z,61.96
2023-02-09T10:03:33.822Z,61.76
2023-02-09T10:04:33.837Z,61.62
2023-02-09T10:05:33.785Z,61.31
2023-02-09T10:06:33.809Z,60.06
2023-02-09T10:07:33.765Z,60.30
2023-02-09T10:08:33.756Z,60.53
2023-02-09T10:09:33.773Z,61.16
2023-02-09T10:10:33.770Z,61.29
2023-02-09T10:11:33.722Z,62.12
2023-02-09T10:12:33.718Z,62.26
2023-02-09T10:13:33.701Z,62.74
2023-02-09T10:14:33.710Z,62.36
2023-02-09T10:15:33.678Z,62.64
2023-02-09T10:16:33.709Z,62.54
2023-02-09T10:17:33.673Z,62.09
2023-02-09T10:18:33.653Z,62.23
2023-02-09T10:19:33.650Z,62.51
2023-02-09T10:20:33.629Z,61.60
2023-02-09T10:21:33.626Z,62.02
2023-02-09T10:22:33.647Z,62.43
2023-02-09T10:23:33.593Z,62.92
2023-02-09T10:24:33.608Z,61.78
2023-02-09T10:25:33.595Z,61.88
2023-02-09T10:26:33.592Z,62.30
2023-02-09T10:27:33.553Z,62.16
2023-02-09T10:28:33.645Z,62.04
2023-02-09T10:29:33.543Z,61.80
2023-02-09T10:30:33.555Z,61.07
2023-02-09T10:31:33.637Z,60.74
2023-02-09T10:32:33.500Z,60.74
2023-02-09T10:33:33.479Z,60.63
2023-02-09T10:34:33.490Z,59.19
2023-02-09T10:35:33.452Z,60.87
2023-02-09T10:36:33.462Z,60.87
2023-02-09T10:37:33.467Z,60.97
2023-02-09T10:38:33.714Z,61.18
2023-02-09T10:39:33.431Z,60.14
2023-02-09T10:40:33.434Z,60.63
2023-02-09T10:41:33.412Z,60.09
2023-02-09T10:42:33.395Z,60.32
2023-02-09T10:43:33.382Z,60.63
2023-02-09T10:44:33.359Z,59.73
2023-02-09T10:45:33.382Z,60.77
2023-02-09T10:46:33.400Z,60.56
2023-02-09T10:47:33.363Z,60.74
2023-02-09T10:48:33.316Z,61.26
2023-02-09T10:49:33.307Z,62.51
2023-02-09T10:50:33.296Z,62.45
2023-02-09T10:51:33.297Z,61.21
2023-02-09T10:52:33.297Z,61.18
2023-02-09T10:53:33.257Z,60.97
2023-02-09T10:54:33.262Z,60.32
2023-02-09T10:55:33.259Z,60.56
2023-02-09T10:56:33.254Z,60.46
2023-02-09T10:57:33.247Z,60.20
2023-02-09T10:58:33.245Z,61.47
2023-02-09T10:59:33.198Z,61.57
2023-02-09T11:00:33.190Z,61.26
2023-02-09T11:01:33.187Z,62.40
2023-02-09T11:02:33.170Z,63.10
2023-02-09T11:03:33.153Z,62.35
2023-02-09T11:04:33.253Z,60.58
2023-02-09T11:05:33.140Z,60.56
2023-02-09T11:06:33.122Z,60.87
2023-02-09T11:07:33.121Z,60.53
2023-02-09T11:08:33.132Z,60.66
2023-02-09T11:09:33.102Z,60.46
2023-02-09T11:10:33.100Z,60.48
2023-02-09T11:11:33.072Z,61.00
2023-02-09T11:12:33.066Z,61.03
2023-02-09T11:13:33.113Z,61.86
2023-02-09T11:14:33.041Z,62.48
2023-02-09T11:15:33.070Z,62.48
2023-02-09T11:16:33.070Z,62.27
2023-02-09T11:17:33.029Z,61.96
2023-02-09T11:18:32.998Z,61.05
2023-02-09T11:19:32.980Z,61.26
2023-02-09T11:20:32.970Z,62.40
2023-02-09T11:21:32.958Z,61.47
2023-02-09T11:22:32.987Z,62.40
2023-02-09T11:23:32.939Z,62.89
2023-02-09T11:24:32.948Z,62.35
2023-02-09T11:25:32.916Z,62.24
2023-02-09T11:26:32.908Z,61.93
2023-02-09T11:27:32.911Z,62.76
2023-02-09T11:28:33.075Z,61.31
2023-02-09T11:29:32.898Z,61.18
2023-02-09T11:30:32.905Z,61.28
2023-02-09T11:31:32.953Z,61.52
2023-02-09T11:32:32.848Z,61.93
2023-02-09T11:33:32.840Z,62.06
2023-02-09T11:34:32.867Z,61.96
2023-02-09T11:35:32.813Z,62.24
2023-02-09T11:36:32.805Z,62.37
2023-02-09T11:37:32.800Z,61.86
2023-02-09T11:38:32.794Z,61.96
2023-02-09T11:39:32.768Z,61.96
2023-02-09T11:40:32.781Z,61.68
2023-02-09T11:41:32.744Z,62.06
2023-02-09T11:42:32.751Z,62.37
2023-02-09T11:43:32.721Z,61.76
2023-02-09T11:44:32.742Z,62.51
2023-02-09T11:45:32.722Z,62.68
2023-02-09T11:46:32.764Z,62.61
2023-02-09T11:47:32.676Z,62.82
2023-02-09T11:48:32.693Z,62.27
2023-02-09T11:49:32.656Z,62.37
2023-02-09T11:50:32.662Z,62.37
2023-02-09T11:51:32.639Z,61.44
2023-02-09T11:52:32.643Z,61.44
2023-02-09T11:53:32.635Z,61.72
2023-02-09T11:54:32.627Z,62.14
2023-02-09T11:55:32.588Z,61.21
2023-02-09T11:56:32.597Z,62.24
2023-02-09T11:57:32.591Z,61.93
2023-02-09T11:58:32.592Z,61.83
2023-02-09T11:59:32.549Z,61.10
2023-02-09T12:00:33.921Z,61.13
2023-02-09T12:01:32.567Z,61.72
2023-02-09T12:02:32.559Z,60.69
2023-02-09T12:03:32.506Z,60.17
2023-02-09T12:04:32.510Z,60.79
2023-02-09T12:05:32.482Z,60.27
2023-02-09T12:06:32.512Z,60.51
2023-02-09T12:07:33.174Z,59.99
2023-02-09T12:08:32.468Z,60.41
2023-02-09T12:09:32.438Z,59.27
2023-02-09T12:10:32.442Z,59.16
2023-02-09T12:11:32.421Z,58.95
2023-02-09T12:12:32.412Z,59.89
2023-02-09T12:13:32.407Z,60.30
2023-02-09T12:14:32.425Z,59.58
2023-02-09T12:15:32.375Z,58.95
2023-02-09T12:16:32.419Z,59.68
2023-02-09T12:17:32.368Z,58.83
2023-02-09T12:18:32.383Z,58.72
2023-02-09T12:19:32.332Z,58.51
2023-02-09T12:20:32.341Z,58.62
2023-02-09T12:21:32.335Z,58.41
2023-02-09T12:22:32.299Z,57.79
2023-02-09T12:23:32.290Z,57.76
2023-02-09T12:24:32.299Z,58.48
2023-02-09T12:25:32.281Z,57.66
2023-02-09T12:26:32.266Z,56.62
2023-02-09T12:27:32.242Z,57.24
2023-02-09T12:28:32.317Z,57.66
2023-02-09T12:29:32.226Z,57.14
2023-02-09T12:30:32.263Z,57.45
2023-02-09T12:31:32.373Z,57.04
2023-02-09T12:32:32.204Z,57.24
2023-02-09T12:33:32.217Z,57.56
2023-02-09T12:34:32.169Z,58.18
2023-02-09T12:35:32.189Z,58.18
2023-02-09T12:36:32.154Z,55.90
2023-02-09T12:37:32.136Z,55.38
2023-02-09T12:38:32.148Z,56.10
2023-02-09T12:39:32.119Z,55.49
2023-02-09T12:40:32.116Z,55.28
2023-02-09T12:41:32.102Z,56.93
2023-02-09T12:42:32.107Z,57.32
2023-02-09T12:43:32.072Z,57.63
2023-02-09T12:44:32.073Z,57.12
2023-02-09T12:45:32.181Z,56.60
2023-02-09T12:46:32.118Z,57.42
2023-02-09T12:47:32.043Z,57.73
2023-02-09T12:48:32.022Z,56.91
2023-02-09T12:49:32.047Z,55.98
2023-02-09T12:50:32.003Z,55.35
2023-02-09T12:51:31.984Z,55.74
2023-02-09T12:52:31.987Z,56.16
2023-02-09T12:53:31.980Z,54.61
2023-02-09T12:54:31.949Z,55.43
2023-02-09T12:55:32.014Z,54.50
2023-02-09T12:56:31.941Z,53.49